createdAt,value
2022-08-08T00:02:03.446Z,18.23
2022-08-08T00:04:40.299Z,12.88
2022-08-08T00:07:21.665Z,15.43
2022-08-08T00:10:02.669Z,15.05
2022-08-08T00:12:34.604Z,17.30
2022-08-08T00:15:12.969Z,11.80
2022-08-08T00:18:02.043Z,15.30
2022-08-08T00:20:39.604Z,14.52
2022-08-08T00:23:16.020Z,15.85
2022-08-08T00:25:50.809Z,13.38
2022-08-08T00:28:35.755Z,12.27
2022-08-08T00:32:28.855Z,14.50
2022-08-08T00:34:46.077Z,14.80
2022-08-08T00:37:47.413Z,15.82
2022-08-08T00:41:11.040Z,15.32
2022-08-08T00:44:08.522Z,14.05
2022-08-08T00:46:58.564Z,16.73
2022-08-08T00:50:09.524Z,14.75
2022-08-08T00:52:54.038Z,14.57
2022-08-08T00:56:03.062Z,14.70
2022-08-08T00:59:14.559Z,15.80
2022-08-08T01:02:01.983Z,14.05
2022-08-08T01:05:04.272Z,14.73
2022-08-08T01:08:19.288Z,15.65
2022-08-08T01:11:30.434Z,16.33
2022-08-08T01:14:54.206Z,14.65
2022-08-08T01:18:02.497Z,16.50
2022-08-08T01:20:49.425Z,16.50
2022-08-08T01:24:13.581Z,16.80
2022-08-08T01:27:24.283Z,15.00
2022-08-08T01:30:45.854Z,16.20
2022-08-08T01:34:01.515Z,18.25
2022-08-08T01:37:13.539Z,15.73
2022-08-08T01:40:02.762Z,14.30
2022-08-08T01:42:38.150Z,15.73
2022-08-08T01:45:32.471Z,15.38
2022-08-08T01:48:23.276Z,15.75
2022-08-08T01:52:00.133Z,14.45
2022-08-08T01:55:45.066Z,14.52
2022-08-08T01:57:49.018Z,16.48
2022-08-08T02:00:23.278Z,18.35
2022-08-08T02:03:54.470Z,16.85
2022-08-08T02:06:32.358Z,20.52
2022-08-08T02:10:02.580Z,17.65
2022-08-08T02:12:21.626Z,15.80
2022-08-08T02:15:00.923Z,16.55
2022-08-08T02:17:54.794Z,18.27
2022-08-08T02:21:01.246Z,18.92
2022-08-08T02:23:31.709Z,17.63
2022-08-08T02:26:10.272Z,17.77
2022-08-08T02:28:54.348Z,16.02
2022-08-08T02:31:58.366Z,14.20
2022-08-08T02:35:08.616Z,16.38
2022-08-08T02:38:13.661Z,14.38
2022-08-08T02:40:50.017Z,11.98
2022-08-08T02:44:43.211Z,18.05
2022-08-08T02:47:10.191Z,16.85
2022-08-08T02:50:04.968Z,18.92
2022-08-08T02:53:01.044Z,15.52
2022-08-08T02:56:10.061Z,14.82
2022-08-08T02:59:26.195Z,14.18
2022-08-08T03:02:37.598Z,15.73
2022-08-08T03:05:46.881Z,16.83
2022-08-08T03:09:05.512Z,16.50
2022-08-08T03:12:13.840Z,12.98
2022-08-08T03:16:01.026Z,13.45
2022-08-08T03:17:59.729Z,13.25
2022-08-08T03:20:51.486Z,11.65
2022-08-08T03:23:56.418Z,13.40
2022-08-08T03:26:27.337Z,12.93
2022-08-08T03:29:17.169Z,12.77
2022-08-08T03:32:08.911Z,14.00
2022-08-08T03:34:40.458Z,19.13
2022-08-08T03:37:59.036Z,18.60
2022-08-08T03:40:04.122Z,16.45
2022-08-08T03:42:34.295Z,18.23
2022-08-08T03:46:03.175Z,14.75
2022-08-08T03:48:02.544Z,18.90
2022-08-08T03:50:34.368Z,16.52
2022-08-08T03:53:08.449Z,15.27
2022-08-08T03:55:56.566Z,18.85
2022-08-08T03:58:34.566Z,19.10
2022-08-08T04:01:23.030Z,18.27
2022-08-08T04:03:58.088Z,16.55
2022-08-08T04:06:30.806Z,16.40
2022-08-08T04:09:11.083Z,18.13
2022-08-08T04:11:59.190Z,17.60
2022-08-08T04:14:38.348Z,20.08
2022-08-08T04:17:22.618Z,14.00
2022-08-08T04:19:58.407Z,16.80
2022-08-08T04:22:29.522Z,17.33
2022-08-08T04:24:58.518Z,19.63
2022-08-08T04:28:01.677Z,19.30
2022-08-08T04:30:19.731Z,18.90
2022-08-08T04:32:52.274Z,16.52
2022-08-08T04:35:24.154Z,13.82
2022-08-08T04:37:54.912Z,22.63
2022-08-08T04:40:29.999Z,15.90
2022-08-08T04:43:01.628Z,17.77
2022-08-08T04:45:50.957Z,20.15
2022-08-08T04:48:21.948Z,18.52
2022-08-08T04:50:50.952Z,18.20
2022-08-08T04:54:36.157Z,13.98
2022-08-08T04:56:19.619Z,16.70
2022-08-08T04:58:50.663Z,16.10
2022-08-08T05:01:20.369Z,22.27
2022-08-08T05:04:11.403Z,20.83
2022-08-08T05:06:43.307Z,25.65
2022-08-08T05:09:13.300Z,22.40
2022-08-08T05:11:47.693Z,18.95
2022-08-08T05:14:20.562Z,20.88
2022-08-08T05:17:00.585Z,18.67
2022-08-08T05:20:12.762Z,18.85
2022-08-08T05:22:29.658Z,20.73
2022-08-08T05:24:59.868Z,14.27
2022-08-08T05:27:33.393Z,17.02
2022-08-08T05:30:04.876Z,18.85
2022-08-08T05:32:42.499Z,20.27
2022-08-08T05:35:15.514Z,15.40
2022-08-08T05:37:54.519Z,34.53
2022-08-08T05:40:35.261Z,40.75
2022-08-08T05:43:38.415Z,35.70
2022-08-08T05:46:08.615Z,26.58
2022-08-08T05:48:41.747Z,20.00
2022-08-08T05:51:15.729Z,29.83
2022-08-08T05:54:26.013Z,25.17
2022-08-08T05:56:47.622Z,22.23
2022-08-08T05:59:59.138Z,18.42
2022-08-08T06:02:40.888Z,20.70
2022-08-08T06:05:33.772Z,22.73
2022-08-08T06:08:10.532Z,15.65
2022-08-08T06:10:55.930Z,25.95
2022-08-08T06:13:26.653Z,18.33
2022-08-08T06:16:04.051Z,20.40
2022-08-08T06:19:01.943Z,20.73
2022-08-08T06:21:51.823Z,17.40
2022-08-08T06:24:31.135Z,17.30
2022-08-08T06:27:06.852Z,14.50
2022-08-08T06:29:56.565Z,15.23
2022-08-08T06:32:31.350Z,16.92
2022-08-08T06:36:00.636Z,18.17
2022-08-08T06:38:09.348Z,21.92
2022-08-08T06:40:48.686Z,22.23
2022-08-08T06:43:28.515Z,18.38
2022-08-08T06:46:08.985Z,19.20
2022-08-08T06:48:39.031Z,18.35
2022-08-08T06:51:12.696Z,19.48
2022-08-08T06:53:51.176Z,14.38
2022-08-08T06:56:31.050Z,17.58
2022-08-08T06:59:00.313Z,16.95
2022-08-08T07:02:17.649Z,16.83
2022-08-08T07:04:40.634Z,17.83
2022-08-08T07:07:21.085Z,16.05
2022-08-08T07:09:59.505Z,22.20
2022-08-08T07:12:39.605Z,16.30
2022-08-08T07:15:32.188Z,21.52
2022-08-08T07:18:36.725Z,17.42
2022-08-08T07:21:02.192Z,17.33
2022-08-08T07:24:01.263Z,14.77
2022-08-08T07:26:36.230Z,13.75
2022-08-08T07:29:11.492Z,20.17
2022-08-08T07:31:44.017Z,19.05
2022-08-08T07:34:20.371Z,20.92
2022-08-08T07:37:11.936Z,17.45
2022-08-08T07:39:55.890Z,17.75
2022-08-08T07:42:32.853Z,17.13
2022-08-08T07:45:03.416Z,17.92
2022-08-08T07:47:39.244Z,17.17
2022-08-08T07:50:09.831Z,14.40
2022-08-08T07:52:43.760Z,15.90
2022-08-08T07:55:20.134Z,14.75
2022-08-08T07:58:01.821Z,13.00
2022-08-08T08:00:38.322Z,9.35
2022-08-08T08:03:20.673Z,12.18
2022-08-08T08:05:57.556Z,13.85
2022-08-08T08:08:39.199Z,19.88
2022-08-08T08:11:20.954Z,11.70
2022-08-08T08:14:09.591Z,13.13
2022-08-08T08:16:50.603Z,15.43
2022-08-08T08:19:22.825Z,19.67
2022-08-08T08:21:57.412Z,15.52
2022-08-08T08:24:52.645Z,15.48
2022-08-08T08:27:24.513Z,17.63
2022-08-08T08:29:59.349Z,13.55
2022-08-08T08:32:35.903Z,8.40
2022-08-08T08:35:15.351Z,9.25
2022-08-08T08:38:13.249Z,10.15
2022-08-08T08:40:35.131Z,8.85
2022-08-08T08:43:15.250Z,12.95
2022-08-08T08:45:47.930Z,11.70
2022-08-08T08:48:19.530Z,10.30
2022-08-08T08:50:52.293Z,8.90
2022-08-08T08:53:55.509Z,10.48
2022-08-08T08:56:23.892Z,6.85
2022-08-08T08:58:58.914Z,10.60
2022-08-08T09:01:36.005Z,7.80
2022-08-08T09:04:31.696Z,11.55
2022-08-08T09:07:03.275Z,9.02
2022-08-08T09:09:47.614Z,9.25
2022-08-08T09:12:23.661Z,9.85
2022-08-08T09:14:56.244Z,9.32
2022-08-08T09:17:41.866Z,10.73
2022-08-08T09:21:59.700Z,12.52
2022-08-08T09:23:11.542Z,9.48
2022-08-08T09:25:57.751Z,9.80
2022-08-08T09:28:37.338Z,11.02
2022-08-08T09:31:16.352Z,10.77
2022-08-08T09:34:15.442Z,13.20
2022-08-08T09:36:51.885Z,9.25
2022-08-08T09:39:43.798Z,12.13
2022-08-08T09:42:21.698Z,7.57
2022-08-08T09:45:15.376Z,7.30
2022-08-08T09:48:03.977Z,7.10
2022-08-08T09:50:43.961Z,4.93
2022-08-08T09:53:24.703Z,5.55
2022-08-08T09:56:14.437Z,13.23
2022-08-08T09:59:11.175Z,5.43
2022-08-08T10:02:03.096Z,12.48
2022-08-08T10:04:47.801Z,6.70
2022-08-08T10:07:17.929Z,6.13
2022-08-08T10:10:00.729Z,6.50
2022-08-08T10:12:37.913Z,8.32
2022-08-08T10:15:18.274Z,7.57
2022-08-08T10:18:05.713Z,7.25
2022-08-08T10:20:51.207Z,5.00
2022-08-08T10:23:44.252Z,9.10
2022-08-08T10:26:29.977Z,12.98
2022-08-08T10:29:04.757Z,7.43
2022-08-08T10:32:04.015Z,10.52
2022-08-08T10:34:36.294Z,7.95
2022-08-08T10:37:09.100Z,7.15
2022-08-08T10:39:54.504Z,4.80
2022-08-08T10:42:27.433Z,4.15
2022-08-08T10:45:02.693Z,4.55
2022-08-08T10:47:43.104Z,6.70
2022-08-08T10:50:15.859Z,4.90
2022-08-08T10:52:45.615Z,5.78
2022-08-08T10:55:41.406Z,3.60
2022-08-08T10:58:06.559Z,5.25
2022-08-08T11:00:48.570Z,8.55
2022-08-08T11:03:36.812Z,3.58
2022-08-08T11:06:12.734Z,6.88
2022-08-08T11:08:53.263Z,7.45
2022-08-08T11:11:59.850Z,4.22
2022-08-08T11:14:16.361Z,4.85
2022-08-08T11:16:47.389Z,7.75
2022-08-08T11:19:18.901Z,6.57
2022-08-08T11:21:55.328Z,7.07
2022-08-08T11:24:29.031Z,4.55
2022-08-08T11:27:10.345Z,5.85
2022-08-08T11:29:50.730Z,5.25
2022-08-08T11:32:29.380Z,5.22
2022-08-08T11:35:29.501Z,6.38
2022-08-08T11:38:36.888Z,5.43
2022-08-08T11:40:51.715Z,5.22
2022-08-08T11:43:24.352Z,5.63
2022-08-08T11:46:09.624Z,7.88
2022-08-08T11:48:44.878Z,4.90
2022-08-08T11:51:30.310Z,3.53
2022-08-08T11:54:31.583Z,6.38
2022-08-08T11:56:56.388Z,8.02
2022-08-08T12:00:02.209Z,4.95
2022-08-08T12:02:33.392Z,3.10
2022-08-08T12:05:04.695Z,5.15
2022-08-08T12:07:49.824Z,5.07
2022-08-08T12:10:21.294Z,5.93
2022-08-08T12:12:54.686Z,6.95
2022-08-08T12:15:29.256Z,5.28
2022-08-08T12:17:57.752Z,9.13
2022-08-08T12:20:38.961Z,6.47
2022-08-08T12:23:07.374Z,5.50
2022-08-08T12:25:55.172Z,4.72
2022-08-08T12:28:26.373Z,3.65
2022-08-08T12:31:05.905Z,5.25
2022-08-08T12:33:37.113Z,3.67
2022-08-08T12:36:16.695Z,6.25
2022-08-08T12:38:49.894Z,5.20
2022-08-08T12:41:33.548Z,6.93
2022-08-08T12:44:09.311Z,6.35
2022-08-08T12:46:38.134Z,6.15
2022-08-08T12:49:29.622Z,5.85
2022-08-08T12:52:00.340Z,7.55
2022-08-08T12:54:33.404Z,5.22
2022-08-08T12:57:17.112Z,4.15
2022-08-08T13:00:04.668Z,5.65
2022-08-08T13:02:37.916Z,6.28
2022-08-08T13:05:26.914Z,6.47
2022-08-08T13:08:16.290Z,7.20
2022-08-08T13:10:56.154Z,6.72
2022-08-08T13:13:34.633Z,7.30
2022-08-08T13:16:21.326Z,4.65
2022-08-08T13:18:57.230Z,4.90
2022-08-08T13:21:49.085Z,2.70
2022-08-08T13:24:18.711Z,4.47
2022-08-08T13:27:01.966Z,6.13
2022-08-08T13:29:40.806Z,5.38
2022-08-08T13:32:10.949Z,3.20
2022-08-08T13:34:41.360Z,5.03
2022-08-08T13:37:19.846Z,5.35
2022-08-08T13:39:57.970Z,7.15
2022-08-08T13:42:27.305Z,6.13
2022-08-08T13:44:56.781Z,7.63
2022-08-08T13:47:28.578Z,7.28
2022-08-08T13:50:39.780Z,7.53
2022-08-08T13:52:52.130Z,7.28
2022-08-08T13:55:29.532Z,3.42
2022-08-08T13:58:07.924Z,7.78
2022-08-08T14:00:45.268Z,5.22
2022-08-08T14:03:46.979Z,8.40
2022-08-08T14:06:20.600Z,5.35
2022-08-08T14:09:24.973Z,4.35
2022-08-08T14:11:51.573Z,3.95
2022-08-08T14:14:21.059Z,6.53
2022-08-08T14:16:55.654Z,5.13
2022-08-08T14:19:57.652Z,5.05
2022-08-08T14:22:27.997Z,4.65
2022-08-08T14:25:00.147Z,5.82
2022-08-08T14:27:33.316Z,4.63
2022-08-08T14:30:17.753Z,3.92
2022-08-08T14:32:53.288Z,5.25
2022-08-08T14:35:35.500Z,7.72
2022-08-08T14:38:33.553Z,6.32
2022-08-08T14:40:59.541Z,5.63
2022-08-08T14:44:02.641Z,5.22
2022-08-08T14:46:18.661Z,5.70
2022-08-08T14:49:02.509Z,5.47
2022-08-08T14:51:52.073Z,5.63
2022-08-08T14:54:29.017Z,6.07
2022-08-08T14:56:58.501Z,4.95
2022-08-08T14:59:44.186Z,4.35
2022-08-08T15:02:25.582Z,5.68
2022-08-08T15:05:10.523Z,11.38
2022-08-08T15:07:41.797Z,5.97
2022-08-08T15:10:13.008Z,5.68
2022-08-08T15:12:42.016Z,7.55
2022-08-08T15:15:11.550Z,5.43
2022-08-08T15:17:48.706Z,6.03
2022-08-08T15:20:18.699Z,6.10
2022-08-08T15:22:48.880Z,5.75
2022-08-08T15:25:26.099Z,3.38
2022-08-08T15:28:32.604Z,7.30
2022-08-08T15:30:48.791Z,8.45
2022-08-08T15:33:20.926Z,7.15
2022-08-08T15:36:03.968Z,7.60
2022-08-08T15:38:33.612Z,6.70
2022-08-08T15:41:02.099Z,5.20
2022-08-08T15:43:35.645Z,3.33
2022-08-08T15:46:05.001Z,3.15
2022-08-08T15:48:33.447Z,6.63
2022-08-08T15:51:07.070Z,5.10
2022-08-08T15:53:49.266Z,6.85
2022-08-08T15:56:20.275Z,14.63
2022-08-08T15:58:50.249Z,7.82
2022-08-08T16:01:20.925Z,5.70
2022-08-08T16:03:51.812Z,6.05
2022-08-08T16:06:28.733Z,7.85
2022-08-08T16:13:03.203Z,7.63
2022-08-08T16:13:09.022Z,8.90
2022-08-08T16:14:38.109Z,8.88
2022-08-08T16:17:06.727Z,8.95
2022-08-08T16:20:00.191Z,9.50
2022-08-08T16:22:41.425Z,9.07
2022-08-08T16:25:11.571Z,7.63
2022-08-08T16:27:43.623Z,9.52
2022-08-08T16:30:36.441Z,8.48
2022-08-08T16:33:05.772Z,6.85
2022-08-08T16:35:34.308Z,5.63
2022-08-08T16:38:02.660Z,8.32
2022-08-08T16:40:33.642Z,10.38
2022-08-08T16:43:01.795Z,13.40
2022-08-08T16:46:43.114Z,12.95
2022-08-08T16:48:19.560Z,29.80
2022-08-08T16:50:47.740Z,93.07
2022-08-08T16:55:06.011Z,70.53
2022-08-08T16:56:08.833Z,55.15
2022-08-08T16:58:42.808Z,33.20
2022-08-08T17:01:14.742Z,21.25
2022-08-08T17:04:00.456Z,14.35
2022-08-08T17:06:37.592Z,13.82
2022-08-08T17:09:15.095Z,7.22
2022-08-08T17:11:49.081Z,8.73
2022-08-08T17:14:27.230Z,6.43
2022-08-08T17:16:58.943Z,8.23
2022-08-08T17:19:31.912Z,8.48
2022-08-08T17:22:10.347Z,8.20
2022-08-08T17:24:38.730Z,6.30
2022-08-08T17:27:08.267Z,7.50
2022-08-08T17:29:43.428Z,8.63
2022-08-08T17:32:12.099Z,10.18
2022-08-08T17:35:00.169Z,8.80
2022-08-08T17:37:29.279Z,8.10
2022-08-08T17:40:10.451Z,8.73
2022-08-08T17:42:47.335Z,10.07
2022-08-08T17:45:22.476Z,8.77
2022-08-08T17:47:53.982Z,5.53
2022-08-08T17:50:23.596Z,12.25
2022-08-08T17:52:52.793Z,17.10
2022-08-08T17:56:06.931Z,28.23
2022-08-08T17:58:12.335Z,63.17
2022-08-08T18:00:41.683Z,52.92
2022-08-08T18:03:13.283Z,24.10
2022-08-08T18:05:48.169Z,16.77
2022-08-08T18:08:37.898Z,15.75
2022-08-08T18:11:07.457Z,14.32
2022-08-08T18:13:41.349Z,12.27
2022-08-08T18:16:12.647Z,20.63
2022-08-08T18:18:42.637Z,17.60
2022-08-08T18:21:34.866Z,31.92
2022-08-08T18:24:03.053Z,21.10
2022-08-08T18:26:31.897Z,22.52
2022-08-08T18:29:03.065Z,16.02
2022-08-08T18:31:34.540Z,12.77
2022-08-08T18:34:11.309Z,12.40
2022-08-08T18:36:55.557Z,10.50
2022-08-08T18:39:27.694Z,19.27
2022-08-08T18:42:01.140Z,46.75
2022-08-08T18:44:35.945Z,41.08
2022-08-08T18:47:05.153Z,50.30
2022-08-08T18:49:57.751Z,43.05
2022-08-08T18:52:23.460Z,32.35
2022-08-08T18:55:00.588Z,35.30
2022-08-08T18:57:41.978Z,30.85
2022-08-08T19:00:16.909Z,29.90
2022-08-08T19:02:55.893Z,46.63
2022-08-08T19:05:31.732Z,49.78
2022-08-08T19:08:24.591Z,33.67
2022-08-08T19:10:57.703Z,27.58
2022-08-08T19:13:38.244Z,19.27
2022-08-08T19:16:19.049Z,16.73
2022-08-08T19:19:00.457Z,18.83
2022-08-08T19:21:33.407Z,16.40
2022-08-08T19:24:42.018Z,12.20
2022-08-08T19:27:07.105Z,11.85
2022-08-08T19:29:42.284Z,9.32
2022-08-08T19:32:19.662Z,9.50
2022-08-08T19:34:51.729Z,9.35
2022-08-08T19:37:42.261Z,7.03
2022-08-08T19:40:16.291Z,13.27
2022-08-08T19:42:45.644Z,27.13
2022-08-08T19:45:59.772Z,37.33
2022-08-08T19:48:04.204Z,40.25
2022-08-08T19:50:34.066Z,31.05
2022-08-08T19:53:02.372Z,28.13
2022-08-08T19:55:33.781Z,19.13
2022-08-08T19:58:02.760Z,22.13
2022-08-08T20:00:34.429Z,21.42
2022-08-08T20:03:15.262Z,15.38
2022-08-08T20:06:14.931Z,27.45
2022-08-08T20:08:48.105Z,25.48
2022-08-08T20:11:18.560Z,24.02
2022-08-08T20:14:32.241Z,17.92
2022-08-08T20:16:40.773Z,22.45
2022-08-08T20:19:11.021Z,15.65
2022-08-08T20:21:39.697Z,14.48
2022-08-08T20:24:08.792Z,13.82
2022-08-08T20:26:41.669Z,15.90
2022-08-08T20:29:16.084Z,10.70
2022-08-08T20:32:02.809Z,9.73
2022-08-08T20:34:35.281Z,10.00
2022-08-08T20:37:07.168Z,8.65
2022-08-08T20:39:41.673Z,9.75
2022-08-08T20:42:28.756Z,9.00
2022-08-08T20:44:58.793Z,8.57
2022-08-08T20:47:35.936Z,8.60
2022-08-08T20:50:09.949Z,11.00
2022-08-08T20:52:39.493Z,12.82
2022-08-08T20:55:16.535Z,11.05
2022-08-08T20:57:51.097Z,30.65
2022-08-08T21:00:19.874Z,25.20
2022-08-08T21:02:52.481Z,18.88
2022-08-08T21:05:23.338Z,28.33
2022-08-08T21:08:34.350Z,38.90
2022-08-08T21:10:41.309Z,47.85
2022-08-08T21:13:10.185Z,61.42
2022-08-08T21:16:05.149Z,41.58
2022-08-08T21:18:27.907Z,45.40
2022-08-08T21:20:57.933Z,56.03
2022-08-08T21:24:01.887Z,50.40
2022-08-08T21:26:21.070Z,57.17
2022-08-08T21:28:56.051Z,60.35
2022-08-08T21:31:58.626Z,57.28
2022-08-08T21:34:18.759Z,60.13
2022-08-08T21:36:50.339Z,36.45
2022-08-08T21:39:21.983Z,28.25
2022-08-08T21:41:51.367Z,40.78
2022-08-08T21:44:22.312Z,60.33
2022-08-08T21:48:05.919Z,59.08
2022-08-08T21:49:39.428Z,43.78
2022-08-08T21:54:23.063Z,28.27
2022-08-08T21:55:04.135Z,39.60
2022-08-08T21:57:43.028Z,70.07
2022-08-08T22:00:26.140Z,48.13
2022-08-08T22:02:54.652Z,78.55
2022-08-08T22:05:23.475Z,79.65
2022-08-08T22:07:53.136Z,61.78
2022-08-08T22:10:32.616Z,39.35
2022-08-08T22:13:17.292Z,29.15
2022-08-08T22:15:59.135Z,17.90
2022-08-08T22:18:30.979Z,17.60
2022-08-08T22:21:08.329Z,14.65
2022-08-08T22:23:49.530Z,17.27
2022-08-08T22:26:29.514Z,17.08
2022-08-08T22:29:13.989Z,16.35
2022-08-08T22:32:02.114Z,14.70
2022-08-08T22:34:32.893Z,14.40
2022-08-08T22:37:03.287Z,11.50
2022-08-08T22:39:45.804Z,16.15
2022-08-08T22:42:27.419Z,15.63
2022-08-08T22:45:00.031Z,13.60
2022-08-08T22:47:37.463Z,15.02
2022-08-08T22:50:25.250Z,17.10
2022-08-08T22:53:22.439Z,11.95
2022-08-08T22:55:58.065Z,15.05
2022-08-08T22:58:34.100Z,16.85
2022-08-08T23:01:30.247Z,15.32
2022-08-08T23:03:54.599Z,13.95
2022-08-08T23:06:24.112Z,12.68
2022-08-08T23:08:55.904Z,14.15
2022-08-08T23:11:30.791Z,18.67
2022-08-08T23:14:19.118Z,11.68
2022-08-08T23:16:53.249Z,17.95
2022-08-08T23:19:26.392Z,16.55
2022-08-08T23:21:54.783Z,19.58
2022-08-08T23:24:23.735Z,16.75
2022-08-08T23:26:56.087Z,15.63
2022-08-08T23:29:27.081Z,14.45
2022-08-08T23:31:58.620Z,16.05
2022-08-08T23:34:29.382Z,20.92
2022-08-08T23:36:59.888Z,17.20
2022-08-08T23:39:41.447Z,14.98
2022-08-08T23:42:21.258Z,15.95
2022-08-08T23:44:50.181Z,17.02
2022-08-08T23:48:59.777Z,12.98
2022-08-08T23:50:14.950Z,15.18
2022-08-08T23:52:59.178Z,22.30
2022-08-08T23:55:42.211Z,11.73
2022-08-08T23:58:22.332Z,19.95
